createdAt,value
2023-05-13T00:01:38.691Z,11.95
2023-05-13T00:04:07.561Z,11.70
2023-05-13T00:06:35.298Z,11.46
2023-05-13T00:09:03.318Z,11.39
2023-05-13T00:11:30.970Z,11.77
2023-05-13T00:13:58.346Z,12.06
2023-05-13T00:16:27.785Z,11.36
2023-05-13T00:18:56.380Z,11.60
2023-05-13T00:21:23.921Z,11.73
2023-05-13T00:23:51.438Z,11.83
2023-05-13T00:26:19.167Z,12.30
2023-05-13T00:28:47.421Z,11.71
2023-05-13T00:31:15.819Z,12.05
2023-05-13T00:33:43.515Z,11.79
2023-05-13T00:36:12.458Z,11.25
2023-05-13T00:38:39.976Z,11.92
2023-05-13T00:41:08.380Z,11.79
2023-05-13T00:43:35.814Z,11.73
2023-05-13T00:46:03.368Z,11.90
2023-05-13T00:48:31.207Z,11.83
2023-05-13T00:50:59.480Z,11.56
2023-05-13T00:53:26.889Z,11.62
2023-05-13T00:55:54.808Z,11.93
2023-05-13T00:58:22.154Z,11.74
2023-05-13T01:01:05.699Z,11.45
2023-05-13T01:03:46.479Z,11.75
2023-05-13T01:06:17.167Z,11.77
2023-05-13T01:08:58.483Z,11.72
2023-05-13T01:11:32.794Z,11.90
2023-05-13T01:14:10.514Z,11.58
2023-05-13T01:16:50.728Z,11.88
2023-05-13T01:19:32.480Z,11.99
2023-05-13T01:21:59.859Z,12.20
2023-05-13T01:24:27.641Z,11.65
2023-05-13T01:26:55.582Z,11.75
2023-05-13T01:29:22.987Z,11.69
2023-05-13T01:31:51.212Z,11.78
2023-05-13T01:34:20.871Z,11.47
2023-05-13T01:36:48.691Z,12.04
2023-05-13T01:39:18.541Z,11.86
2023-05-13T01:41:46.222Z,11.73
2023-05-13T01:44:13.670Z,11.62
2023-05-13T01:46:43.890Z,11.71
2023-05-13T01:49:11.371Z,12.10
2023-05-13T01:51:38.818Z,11.57
2023-05-13T01:54:06.522Z,11.90
2023-05-13T01:56:35.380Z,11.84
2023-05-13T01:59:03.287Z,11.94
2023-05-13T02:01:31.072Z,11.63
2023-05-13T02:04:00.041Z,11.73
2023-05-13T02:06:28.204Z,11.45
2023-05-13T02:08:55.807Z,11.69
2023-05-13T02:11:23.815Z,11.38
2023-05-13T02:13:51.309Z,11.86
2023-05-13T02:16:20.669Z,11.51
2023-05-13T02:18:48.450Z,11.45
2023-05-13T02:21:16.138Z,11.73
2023-05-13T02:23:44.842Z,11.43
2023-05-13T02:26:12.594Z,11.55
2023-05-13T02:28:40.326Z,11.30
2023-05-13T02:31:08.056Z,11.64
2023-05-13T02:33:35.817Z,11.94
2023-05-13T02:36:03.297Z,11.78
2023-05-13T02:38:31.248Z,11.89
2023-05-13T02:40:59.258Z,11.55
2023-05-13T02:43:27.591Z,11.46
2023-05-13T02:45:55.678Z,11.52
2023-05-13T02:48:23.158Z,11.50
2023-05-13T02:50:50.853Z,11.69
2023-05-13T02:53:18.496Z,11.93
2023-05-13T02:55:46.470Z,11.85
2023-05-13T02:58:15.405Z,12.11
2023-05-13T03:00:43.182Z,12.04
2023-05-13T03:03:10.860Z,11.75
2023-05-13T03:05:38.359Z,11.84
2023-05-13T03:08:06.121Z,11.44
2023-05-13T03:10:33.574Z,11.31
2023-05-13T03:13:01.415Z,11.32
2023-05-13T03:15:30.007Z,11.14
2023-05-13T03:17:57.958Z,11.24
2023-05-13T03:20:25.696Z,11.33
2023-05-13T03:22:53.478Z,11.28
2023-05-13T03:25:20.878Z,11.29
2023-05-13T03:27:48.633Z,11.38
2023-05-13T03:30:16.821Z,11.05
2023-05-13T03:32:44.995Z,11.06
2023-05-13T03:35:12.875Z,11.24
2023-05-13T03:37:40.582Z,10.88
2023-05-13T03:40:08.637Z,10.80
2023-05-13T03:42:36.245Z,11.20
2023-05-13T03:45:04.564Z,10.83
2023-05-13T03:47:32.714Z,11.09
2023-05-13T03:50:00.994Z,11.08
2023-05-13T03:52:30.574Z,11.15
2023-05-13T03:54:57.988Z,10.86
2023-05-13T03:57:25.637Z,11.15
2023-05-13T03:59:53.299Z,11.08
2023-05-13T04:02:21.863Z,10.96
2023-05-13T04:04:49.810Z,11.28
2023-05-13T04:07:17.262Z,10.94
2023-05-13T04:09:44.624Z,11.23
2023-05-13T04:12:12.393Z,11.19
2023-05-13T04:14:40.193Z,11.74
2023-05-13T04:17:07.732Z,11.40
2023-05-13T04:19:35.433Z,11.61
2023-05-13T04:22:02.820Z,11.41
2023-05-13T04:24:30.307Z,11.73
2023-05-13T04:27:00.026Z,11.56
2023-05-13T04:29:29.452Z,11.22
2023-05-13T04:31:57.171Z,11.33
2023-05-13T04:34:24.950Z,11.56
2023-05-13T04:36:52.815Z,11.33
2023-05-13T04:39:20.359Z,11.57
2023-05-13T04:41:47.994Z,11.39
2023-05-13T04:44:15.382Z,11.28
2023-05-13T04:46:44.908Z,11.52
2023-05-13T04:49:12.720Z,11.57
2023-05-13T04:51:40.355Z,11.29
2023-05-13T04:54:08.485Z,11.63
2023-05-13T04:56:36.171Z,11.69
2023-05-13T04:59:03.604Z,11.78
2023-05-13T05:01:31.184Z,11.32
2023-05-13T05:04:02.674Z,11.49
2023-05-13T05:06:31.327Z,11.40
2023-05-13T05:08:59.278Z,11.57
2023-05-13T05:11:26.686Z,11.17
2023-05-13T05:13:54.329Z,11.25
2023-05-13T05:16:22.110Z,10.99
2023-05-13T05:18:49.628Z,11.56
2023-05-13T05:21:18.712Z,11.43
2023-05-13T05:23:46.862Z,11.73
2023-05-13T05:26:14.277Z,11.77
2023-05-13T05:28:43.127Z,11.45
2023-05-13T05:31:10.969Z,11.51
2023-05-13T05:33:40.010Z,11.49
2023-05-13T05:36:07.767Z,11.62
2023-05-13T05:38:35.991Z,11.33
2023-05-13T05:41:04.842Z,11.45
2023-05-13T05:43:32.285Z,11.47
2023-05-13T05:46:00.045Z,11.47
2023-05-13T05:48:27.497Z,11.41
2023-05-13T05:50:56.341Z,11.41
2023-05-13T05:53:24.346Z,11.43
2023-05-13T05:55:53.273Z,11.27
2023-05-13T05:58:21.029Z,11.15
2023-05-13T06:00:49.297Z,11.25
2023-05-13T06:03:17.712Z,11.28
2023-05-13T06:05:45.448Z,11.09
2023-05-13T06:08:12.859Z,11.38
2023-05-13T06:10:40.813Z,11.27
2023-05-13T06:13:08.149Z,11.39
2023-05-13T06:15:36.556Z,11.36
2023-05-13T06:18:06.108Z,11.34
2023-05-13T06:20:33.697Z,11.78
2023-05-13T06:23:01.072Z,11.78
2023-05-13T06:25:28.740Z,11.95
2023-05-13T06:27:56.256Z,11.76
2023-05-13T06:30:23.883Z,12.03
2023-05-13T06:33:01.029Z,11.58
2023-05-13T06:35:30.497Z,11.62
2023-05-13T06:37:58.756Z,11.65
2023-05-13T06:40:26.400Z,11.78
2023-05-13T06:42:53.900Z,11.94
2023-05-13T06:45:23.471Z,11.73
2023-05-13T06:47:51.751Z,11.88
2023-05-13T06:50:19.895Z,11.68
2023-05-13T06:52:47.766Z,11.77
2023-05-13T06:55:16.680Z,11.75
2023-05-13T06:57:46.789Z,11.91
2023-05-13T07:00:15.322Z,11.84
2023-05-13T07:02:42.798Z,11.75
2023-05-13T07:05:11.695Z,11.96
2023-05-13T07:07:39.387Z,12.29
2023-05-13T07:10:07.124Z,11.68
2023-05-13T07:12:34.495Z,11.84
2023-05-13T07:15:02.690Z,12.52
2023-05-13T07:17:31.406Z,12.54
2023-05-13T07:19:59.298Z,12.43
2023-05-13T07:22:27.549Z,12.33
2023-05-13T07:24:55.226Z,12.46
2023-05-13T07:27:22.884Z,12.72
2023-05-13T07:29:50.552Z,12.45
2023-05-13T07:32:18.046Z,12.41
2023-05-13T07:34:45.448Z,12.13
2023-05-13T07:37:13.096Z,12.25
2023-05-13T07:39:40.649Z,12.26
2023-05-13T07:42:08.115Z,11.91
2023-05-13T07:44:35.770Z,12.17
2023-05-13T07:47:03.248Z,12.16
2023-05-13T07:49:30.660Z,12.41
2023-05-13T07:51:58.408Z,12.59
2023-05-13T07:54:25.870Z,12.66
2023-05-13T07:56:53.400Z,12.72
2023-05-13T07:59:21.079Z,12.48
2023-05-13T08:01:48.528Z,12.40
2023-05-13T08:04:16.754Z,12.40
2023-05-13T08:06:44.219Z,12.72
2023-05-13T08:09:12.314Z,12.80
2023-05-13T08:11:40.246Z,12.92
2023-05-13T08:14:07.704Z,12.83
2023-05-13T08:16:38.895Z,12.67
2023-05-13T08:19:06.703Z,12.67
2023-05-13T08:21:34.137Z,12.42
2023-05-13T08:24:01.589Z,12.56
2023-05-13T08:26:29.199Z,12.78
2023-05-13T08:28:58.157Z,12.96
2023-05-13T08:31:25.693Z,13.02
2023-05-13T08:33:54.027Z,13.00
2023-05-13T08:36:25.941Z,12.86
2023-05-13T08:38:53.656Z,12.81
2023-05-13T08:41:22.845Z,12.96
2023-05-13T08:43:51.966Z,13.54
2023-05-13T08:46:21.131Z,13.24
2023-05-13T08:48:49.140Z,13.12
2023-05-13T08:51:16.787Z,12.90
2023-05-13T08:53:44.429Z,13.17
2023-05-13T08:56:12.487Z,13.45
2023-05-13T08:58:39.898Z,13.56
2023-05-13T09:01:07.874Z,13.50
2023-05-13T09:03:36.332Z,13.66
2023-05-13T09:06:04.266Z,13.82
2023-05-13T09:08:32.766Z,14.05
2023-05-13T09:11:00.896Z,14.17
2023-05-13T09:13:28.322Z,13.97
2023-05-13T09:15:56.097Z,13.93
2023-05-13T09:18:30.768Z,13.84
2023-05-13T09:20:58.528Z,13.81
2023-05-13T09:23:27.005Z,13.88
2023-05-13T09:25:54.418Z,13.41
2023-05-13T09:28:23.613Z,13.71
2023-05-13T09:30:55.646Z,13.66
2023-05-13T09:33:30.318Z,13.47
2023-05-13T09:35:57.735Z,13.55
2023-05-13T09:38:26.177Z,13.29
2023-05-13T09:40:57.764Z,13.74
2023-05-13T09:43:27.466Z,14.10
2023-05-13T09:45:55.902Z,13.69
2023-05-13T09:48:25.971Z,14.02
2023-05-13T09:50:55.047Z,14.28
2023-05-13T09:53:22.509Z,14.48
2023-05-13T09:55:52.077Z,14.32
2023-05-13T09:58:20.477Z,14.43
2023-05-13T10:00:48.250Z,14.39
2023-05-13T10:03:16.470Z,13.95
2023-05-13T10:05:44.019Z,13.48
2023-05-13T10:08:13.008Z,13.79
2023-05-13T10:10:42.205Z,14.13
2023-05-13T10:13:13.429Z,14.21
2023-05-13T10:15:45.244Z,14.54
2023-05-13T10:18:13.268Z,14.54
2023-05-13T10:20:42.172Z,14.63
2023-05-13T10:23:10.458Z,14.60
2023-05-13T10:25:38.233Z,14.02
2023-05-13T10:28:06.760Z,14.35
2023-05-13T10:30:35.923Z,13.97
2023-05-13T10:33:04.154Z,14.18
2023-05-13T10:35:38.625Z,14.03
2023-05-13T10:38:11.339Z,13.76
2023-05-13T10:40:57.834Z,13.54
2023-05-13T10:43:29.416Z,14.12
2023-05-13T10:46:08.233Z,14.10
2023-05-13T10:49:02.129Z,14.11
2023-05-13T10:51:29.946Z,13.87
2023-05-13T10:54:00.515Z,13.76
2023-05-13T10:56:28.617Z,13.96
2023-05-13T10:59:04.477Z,14.03
2023-05-13T11:01:36.116Z,13.68
2023-05-13T11:04:05.463Z,13.85
2023-05-13T11:06:37.677Z,13.88
2023-05-13T11:09:16.109Z,13.99
2023-05-13T11:11:47.842Z,14.06
2023-05-13T11:14:23.162Z,13.78
2023-05-13T11:16:55.457Z,13.86
2023-05-13T11:19:28.582Z,13.74
2023-05-13T11:21:59.725Z,14.05
2023-05-13T11:24:27.461Z,14.26
2023-05-13T11:26:56.740Z,14.08
2023-05-13T11:29:31.584Z,14.36
2023-05-13T11:32:01.095Z,14.17
2023-05-13T11:34:29.301Z,14.23
2023-05-13T11:37:03.864Z,14.65
2023-05-13T11:39:32.519Z,14.25
2023-05-13T11:42:01.886Z,14.04
2023-05-13T11:44:29.517Z,14.26
2023-05-13T11:46:57.850Z,14.41
2023-05-13T11:49:41.312Z,14.39
2023-05-13T11:52:11.887Z,14.24
2023-05-13T11:54:53.451Z,14.07
2023-05-13T11:57:26.126Z,14.05
2023-05-13T11:59:58.252Z,14.24
2023-05-13T12:02:37.501Z,13.98
2023-05-13T12:05:07.225Z,14.27
2023-05-13T12:07:35.376Z,14.59
2023-05-13T12:10:04.464Z,14.83
2023-05-13T12:12:40.731Z,14.78
2023-05-13T12:15:13.800Z,14.99
2023-05-13T12:17:41.910Z,14.66
2023-05-13T12:20:11.482Z,14.72
2023-05-13T12:22:45.248Z,14.75
2023-05-13T12:25:43.850Z,14.67
2023-05-13T12:28:18.941Z,14.59
2023-05-13T12:30:58.238Z,14.58
2023-05-13T12:33:28.232Z,14.68
2023-05-13T12:36:15.097Z,14.81
2023-05-13T12:38:56.331Z,14.52
2023-05-13T12:41:26.722Z,14.31
2023-05-13T12:43:58.805Z,14.42
2023-05-13T12:46:26.978Z,14.58
2023-05-13T12:48:59.348Z,14.60
2023-05-13T12:51:27.552Z,14.79
2023-05-13T12:53:55.743Z,15.00
2023-05-13T12:56:23.748Z,14.92
2023-05-13T12:58:53.359Z,14.73
2023-05-13T13:01:21.286Z,14.66
2023-05-13T13:03:49.106Z,14.59
2023-05-13T13:06:17.912Z,14.69
2023-05-13T13:08:45.785Z,14.77
2023-05-13T13:11:18.871Z,14.58
2023-05-13T13:13:47.222Z,14.53
2023-05-13T13:16:14.942Z,15.01
2023-05-13T13:18:42.839Z,15.37
2023-05-13T13:21:13.365Z,15.00
2023-05-13T13:23:43.866Z,15.09
2023-05-13T13:26:11.610Z,15.28
2023-05-13T13:28:39.297Z,15.17
2023-05-13T13:31:07.734Z,15.58
2023-05-13T13:33:35.137Z,15.38
2023-05-13T13:36:03.143Z,15.14
2023-05-13T13:38:30.522Z,15.19
2023-05-13T13:40:57.872Z,14.91
2023-05-13T13:43:25.486Z,14.96
2023-05-13T13:45:53.795Z,14.89
2023-05-13T13:48:21.598Z,14.83
2023-05-13T13:50:50.636Z,14.74
2023-05-13T13:53:19.604Z,14.83
2023-05-13T13:55:47.028Z,14.72
2023-05-13T13:58:15.749Z,14.94
2023-05-13T14:00:43.202Z,14.91
2023-05-13T14:03:10.954Z,14.93
2023-05-13T14:05:38.430Z,14.91
2023-05-13T14:08:06.409Z,15.36
2023-05-13T14:10:34.118Z,15.27
2023-05-13T14:13:01.624Z,15.65
2023-05-13T14:15:30.728Z,15.41
2023-05-13T14:17:58.622Z,15.61
2023-05-13T14:20:28.789Z,15.47
2023-05-13T14:22:56.583Z,15.42
2023-05-13T14:25:24.383Z,15.18
2023-05-13T14:27:51.817Z,15.40
2023-05-13T14:30:19.383Z,15.70
2023-05-13T14:32:47.407Z,15.44
2023-05-13T14:35:14.868Z,15.27
2023-05-13T14:37:42.664Z,15.30
2023-05-13T14:40:10.531Z,15.39
2023-05-13T14:42:37.957Z,15.19
2023-05-13T14:45:06.351Z,15.29
2023-05-13T14:47:34.049Z,15.54
2023-05-13T14:50:01.473Z,15.51
2023-05-13T14:52:29.026Z,15.40
2023-05-13T14:54:56.804Z,15.64
2023-05-13T14:57:24.276Z,15.52
2023-05-13T14:59:51.694Z,15.38
2023-05-13T15:02:19.412Z,15.64
2023-05-13T15:04:50.865Z,15.28
2023-05-13T15:07:24.810Z,15.40
2023-05-13T15:09:52.330Z,15.20
2023-05-13T15:12:19.720Z,15.44
2023-05-13T15:14:54.598Z,15.21
2023-05-13T15:17:22.135Z,15.33
2023-05-13T15:19:49.916Z,15.66
2023-05-13T15:22:18.156Z,15.43
2023-05-13T15:24:45.571Z,15.28
2023-05-13T15:27:14.200Z,15.31
2023-05-13T15:29:41.631Z,15.04
2023-05-13T15:32:09.019Z,15.25
2023-05-13T15:34:36.708Z,15.51
2023-05-13T15:37:04.414Z,15.43
2023-05-13T15:39:31.896Z,15.40
2023-05-13T15:41:59.642Z,15.04
2023-05-13T15:44:27.223Z,15.14
2023-05-13T15:46:54.702Z,15.21
2023-05-13T15:49:22.905Z,15.16
2023-05-13T15:51:50.719Z,15.47
2023-05-13T15:54:18.350Z,15.44
2023-05-13T15:56:46.125Z,15.66
2023-05-13T15:59:13.606Z,15.42
2023-05-13T16:01:41.823Z,15.52
2023-05-13T16:04:09.611Z,15.50
2023-05-13T16:06:37.057Z,15.58
2023-05-13T16:09:04.545Z,15.82
2023-05-13T16:11:32.338Z,15.46
2023-05-13T16:13:59.744Z,15.74
2023-05-13T16:16:27.301Z,15.21
2023-05-13T16:18:55.143Z,15.34
2023-05-13T16:21:22.660Z,15.54
2023-05-13T16:23:51.052Z,15.57
2023-05-13T16:26:18.758Z,15.56
2023-05-13T16:28:46.213Z,15.78
2023-05-13T16:31:13.874Z,15.92
2023-05-13T16:33:41.622Z,15.22
2023-05-13T16:36:11.763Z,15.51
2023-05-13T16:38:41.374Z,15.50
2023-05-13T16:41:09.208Z,14.79
2023-05-13T16:43:36.606Z,15.13
2023-05-13T16:46:04.075Z,14.93
2023-05-13T16:48:31.761Z,15.12
2023-05-13T16:50:59.208Z,15.13
2023-05-13T16:53:26.684Z,15.13
2023-05-13T16:55:54.370Z,15.21
2023-05-13T16:58:22.152Z,15.55
2023-05-13T17:00:49.695Z,15.53
2023-05-13T17:03:17.605Z,15.25
2023-05-13T17:05:45.202Z,15.31
2023-05-13T17:08:12.608Z,14.95
2023-05-13T17:10:40.497Z,15.49
2023-05-13T17:13:08.157Z,15.54
2023-05-13T17:15:35.818Z,15.48
2023-05-13T17:18:03.856Z,15.54
2023-05-13T17:20:31.374Z,15.23
2023-05-13T17:22:58.753Z,14.91
2023-05-13T17:25:26.552Z,15.13
2023-05-13T17:27:54.151Z,15.42
2023-05-13T17:30:23.022Z,15.09
2023-05-13T17:32:50.867Z,15.01
2023-05-13T17:35:18.354Z,14.98
2023-05-13T17:37:46.187Z,14.92
2023-05-13T17:40:13.927Z,15.07
2023-05-13T17:42:41.318Z,14.53
2023-05-13T17:45:09.193Z,14.62
2023-05-13T17:47:37.036Z,14.63
2023-05-13T17:50:04.830Z,14.85
2023-05-13T17:52:32.266Z,14.95
2023-05-13T17:55:00.346Z,14.88
2023-05-13T17:57:27.979Z,14.98
2023-05-13T17:59:55.475Z,14.93
2023-05-13T18:02:24.132Z,14.61
2023-05-13T18:04:52.682Z,14.82
2023-05-13T18:07:20.028Z,15.06
2023-05-13T18:09:49.311Z,15.18
2023-05-13T18:12:18.050Z,14.49
2023-05-13T18:14:45.470Z,14.48
2023-05-13T18:17:12.812Z,13.97
2023-05-13T18:19:40.535Z,13.95
2023-05-13T18:22:11.060Z,14.23
2023-05-13T18:24:38.957Z,14.44
2023-05-13T18:27:07.379Z,14.36
2023-05-13T18:29:35.435Z,13.95
2023-05-13T18:32:03.214Z,14.16
2023-05-13T18:34:31.244Z,14.42
2023-05-13T18:37:01.625Z,14.71
2023-05-13T18:39:29.041Z,14.62
2023-05-13T18:41:56.682Z,14.84
2023-05-13T18:44:24.123Z,14.98
2023-05-13T18:46:52.256Z,14.93
2023-05-13T18:49:19.883Z,14.95
2023-05-13T18:51:47.389Z,14.66
2023-05-13T18:54:14.839Z,14.83
2023-05-13T18:56:43.203Z,14.91
2023-05-13T18:59:10.586Z,15.05
2023-05-13T19:01:38.018Z,14.72
2023-05-13T19:04:06.084Z,14.59
2023-05-13T19:06:36.278Z,14.66
2023-05-13T19:09:03.939Z,14.83
2023-05-13T19:11:32.288Z,14.51
2023-05-13T19:13:59.805Z,14.63
2023-05-13T19:16:27.273Z,14.59
2023-05-13T19:18:57.846Z,14.44
2023-05-13T19:21:25.484Z,14.45
2023-05-13T19:23:52.978Z,14.09
2023-05-13T19:26:20.717Z,14.51
2023-05-13T19:28:48.919Z,14.67
2023-05-13T19:31:16.444Z,13.94
2023-05-13T19:33:46.074Z,14.09
2023-05-13T19:36:14.013Z,14.27
2023-05-13T19:38:41.469Z,14.30
2023-05-13T19:41:09.136Z,14.57
2023-05-13T19:43:37.192Z,14.32
2023-05-13T19:46:04.946Z,14.48
2023-05-13T19:48:32.803Z,14.24
2023-05-13T19:51:00.381Z,14.56
2023-05-13T19:53:27.820Z,14.14
2023-05-13T19:55:56.114Z,14.26
2023-05-13T19:58:23.684Z,13.86
2023-05-13T20:00:51.311Z,13.85
2023-05-13T20:03:19.081Z,13.56
2023-05-13T20:05:48.203Z,13.60
2023-05-13T20:08:15.913Z,13.86
2023-05-13T20:10:43.767Z,13.62
2023-05-13T20:13:11.268Z,13.66
2023-05-13T20:15:38.733Z,13.46
2023-05-13T20:18:06.692Z,13.41
2023-05-13T20:20:34.339Z,13.97
2023-05-13T20:23:02.141Z,14.07
2023-05-13T20:25:29.831Z,13.67
2023-05-13T20:27:57.795Z,13.87
2023-05-13T20:30:25.483Z,13.89
2023-05-13T20:32:53.453Z,13.66
2023-05-13T20:35:21.079Z,13.63
2023-05-13T20:37:48.452Z,13.78
2023-05-13T20:40:16.813Z,13.98
2023-05-13T20:42:44.581Z,13.71
2023-05-13T20:45:12.972Z,13.30
2023-05-13T20:47:40.939Z,13.57
2023-05-13T20:50:08.797Z,13.81
2023-05-13T20:52:36.357Z,14.05
2023-05-13T20:55:04.942Z,13.43
2023-05-13T20:57:32.365Z,13.44
2023-05-13T20:59:59.952Z,13.41
2023-05-13T21:02:27.943Z,13.22
2023-05-13T21:04:55.773Z,13.30
2023-05-13T21:07:23.157Z,13.64
2023-05-13T21:09:51.386Z,13.20
2023-05-13T21:12:18.866Z,13.08
2023-05-13T21:14:46.604Z,13.07
2023-05-13T21:17:14.342Z,13.39
2023-05-13T21:19:41.864Z,13.39
2023-05-13T21:22:09.431Z,13.15
2023-05-13T21:24:37.159Z,13.55
2023-05-13T21:27:04.772Z,13.35
2023-05-13T21:29:33.306Z,13.54
2023-05-13T21:32:00.974Z,13.32
2023-05-13T21:34:30.955Z,13.12
2023-05-13T21:36:58.473Z,13.15
2023-05-13T21:39:26.145Z,13.48
2023-05-13T21:41:53.960Z,13.59
2023-05-13T21:44:21.643Z,13.21
2023-05-13T21:46:49.329Z,12.88
2023-05-13T21:49:16.811Z,13.05
2023-05-13T21:51:44.371Z,12.73
2023-05-13T21:54:12.210Z,12.66
2023-05-13T21:56:39.703Z,12.72
2023-05-13T21:59:07.140Z,12.74
2023-05-13T22:01:34.875Z,13.06
2023-05-13T22:04:02.571Z,13.08
2023-05-13T22:06:29.965Z,12.85
2023-05-13T22:08:57.452Z,12.65
2023-05-13T22:11:25.545Z,12.76
2023-05-13T22:13:52.935Z,12.65
2023-05-13T22:16:20.863Z,12.59
2023-05-13T22:18:49.630Z,12.62
2023-05-13T22:21:17.499Z,12.68
2023-05-13T22:23:45.117Z,12.63
2023-05-13T22:26:12.927Z,12.39
2023-05-13T22:28:40.574Z,12.36
2023-05-13T22:31:08.406Z,12.50
2023-05-13T22:33:36.043Z,12.73
2023-05-13T22:36:03.575Z,12.47
2023-05-13T22:38:30.990Z,12.47
2023-05-13T22:40:58.661Z,12.68
2023-05-13T22:43:26.075Z,12.93
2023-05-13T22:45:53.502Z,12.64
2023-05-13T22:48:21.406Z,12.63
2023-05-13T22:50:49.011Z,12.40
2023-05-13T22:53:18.216Z,12.77
2023-05-13T22:55:46.070Z,12.76
2023-05-13T22:58:13.488Z,12.79
2023-05-13T23:00:40.947Z,12.51
2023-05-13T23:03:08.706Z,12.35
2023-05-13T23:05:36.192Z,12.44
2023-05-13T23:08:03.696Z,12.33
2023-05-13T23:10:31.378Z,12.59
2023-05-13T23:12:58.941Z,12.65
2023-05-13T23:15:26.336Z,12.47
2023-05-13T23:17:54.074Z,12.73
2023-05-13T23:20:21.662Z,12.62
2023-05-13T23:22:49.196Z,12.87
2023-05-13T23:25:16.856Z,12.70
2023-05-13T23:27:44.447Z,12.80
2023-05-13T23:30:12.463Z,12.82
2023-05-13T23:32:40.460Z,12.77
2023-05-13T23:35:08.465Z,12.81
2023-05-13T23:37:36.596Z,12.94
2023-05-13T23:40:05.106Z,12.65
2023-05-13T23:42:32.538Z,12.76
2023-05-13T23:45:00.127Z,12.54
2023-05-13T23:47:27.914Z,12.37
2023-05-13T23:49:55.331Z,12.60
2023-05-13T23:52:22.733Z,12.24
2023-05-13T23:54:50.491Z,12.11
2023-05-13T23:57:18.075Z,12.34
2023-05-13T23:59:45.446Z,12.49
